createdAt,value
2023-03-12T00:00:09.103Z,-0.78
2023-03-12T00:03:31.881Z,-0.83
2023-03-12T00:06:34.774Z,-0.82
2023-03-12T00:09:40.515Z,-0.76
2023-03-12T00:12:43.450Z,-0.80
2023-03-12T00:15:46.243Z,-0.79
2023-03-12T00:18:51.093Z,-0.84
2023-03-12T00:21:53.865Z,-0.88
2023-03-12T00:24:57.592Z,-0.93
2023-03-12T00:28:05.873Z,-0.90
2023-03-12T00:31:27.734Z,-0.82
2023-03-12T00:34:36.157Z,-0.84
2023-03-12T00:37:44.463Z,-0.97
2023-03-12T00:52:07.177Z,-0.42
2023-03-12T00:55:15.094Z,-0.48
2023-03-12T00:58:24.503Z,-0.58
2023-03-12T01:01:58.680Z,-0.55
2023-03-12T01:20:07.125Z,-0.15
2023-03-12T01:23:51.998Z,-0.43
2023-03-12T01:27:01.339Z,-0.57
2023-03-12T01:30:11.882Z,-0.72
2023-03-12T01:33:14.961Z,-0.79
2023-03-12T01:36:29.597Z,-0.90
2023-03-12T01:39:32.708Z,-0.88
2023-03-12T01:42:40.164Z,-0.78
2023-03-12T01:46:31.917Z,-0.92
2023-03-12T01:49:47.543Z,-0.91
2023-03-12T02:07:59.992Z,-0.29
2023-03-12T02:11:07.543Z,-0.61
2023-03-12T02:14:15.128Z,-0.66
2023-03-12T02:17:22.602Z,-0.67
2023-03-12T02:21:21.436Z,-0.67
2023-03-12T02:24:48.811Z,-0.69
2023-03-12T02:28:20.728Z,-0.71
2023-03-12T02:31:58.155Z,-0.74
2023-03-12T02:39:06.080Z,-0.83
2023-03-12T02:42:16.924Z,-0.92
2023-03-12T02:45:49.914Z,-0.88
2023-03-12T02:59:45.261Z,-0.37
2023-03-12T03:02:52.631Z,-0.52
2023-03-12T03:06:04.152Z,-0.79
2023-03-12T03:09:12.693Z,-0.93
2023-03-12T03:13:15.068Z,-0.87
2023-03-12T03:16:36.568Z,-0.84
2023-03-12T03:19:39.361Z,-0.95
2023-03-12T03:22:42.193Z,-0.92
2023-03-12T03:25:47.098Z,-0.93
2023-03-12T03:28:50.972Z,-0.94
2023-03-12T03:31:53.807Z,-0.94
2023-03-12T03:34:56.556Z,-0.88
2023-03-12T03:37:59.316Z,-0.94
2023-03-12T03:41:02.800Z,-0.94
2023-03-12T03:44:07.023Z,-0.94
2023-03-12T03:47:09.711Z,-0.97
2023-03-12T03:50:12.592Z,-0.94
2023-03-12T03:53:15.417Z,-0.93
2023-03-12T03:56:18.430Z,-0.92
2023-03-12T03:59:21.151Z,-0.92
2023-03-12T04:02:23.899Z,-0.96
2023-03-12T04:05:26.777Z,-0.97
2023-03-12T04:08:30.019Z,-1.02
2023-03-12T04:11:39.430Z,-1.01
2023-03-12T04:14:47.742Z,-1.02
2023-03-12T04:17:56.245Z,-1.12
2023-03-12T04:20:59.448Z,-1.12
2023-03-12T04:24:02.375Z,-1.08
2023-03-12T04:27:10.242Z,-1.05
2023-03-12T04:30:13.631Z,-1.07
2023-03-12T04:33:19.315Z,-1.02
2023-03-12T04:36:22.734Z,-1.05
2023-03-12T04:39:25.596Z,-1.05
2023-03-12T04:42:28.354Z,-1.10
2023-03-12T04:45:31.137Z,-1.15
2023-03-12T04:48:34.742Z,-1.12
2023-03-12T04:51:37.587Z,-1.07
2023-03-12T04:54:40.686Z,-1.05
2023-03-12T04:57:43.513Z,-1.05
2023-03-12T05:00:48.416Z,-1.03
2023-03-12T05:03:51.947Z,-1.11
2023-03-12T05:06:54.727Z,-1.13
2023-03-12T05:09:57.511Z,-1.15
2023-03-12T05:13:00.364Z,-1.10
2023-03-12T05:16:03.560Z,-1.11
2023-03-12T05:19:21.028Z,-1.16
2023-03-12T05:22:24.458Z,-1.15
2023-03-12T05:25:27.820Z,-1.12
2023-03-12T05:28:30.812Z,-1.12
2023-03-12T05:31:35.481Z,-1.12
2023-03-12T05:34:57.119Z,-1.08
2023-03-12T05:38:06.511Z,-1.10
2023-03-12T05:41:27.680Z,-1.16
2023-03-12T06:12:08.744Z,-0.61
2023-03-12T06:15:11.813Z,-0.72
2023-03-12T06:18:15.192Z,-0.77
2023-03-12T06:21:23.237Z,-0.83
2023-03-12T06:24:26.104Z,-0.84
2023-03-12T06:27:28.996Z,-0.82
2023-03-12T06:30:32.348Z,-0.84
2023-03-12T06:33:35.761Z,-0.85
2023-03-12T06:36:44.955Z,-0.93
2023-03-12T06:39:48.050Z,-1.02
2023-03-12T06:42:56.608Z,-0.90
2023-03-12T06:46:06.906Z,-1.01
2023-03-12T06:49:17.121Z,-0.88
2023-03-12T06:52:25.867Z,-0.88
2023-03-12T06:56:40.957Z,-0.77
2023-03-12T07:00:22.578Z,-0.77
2023-03-12T07:03:31.560Z,-0.73
2023-03-12T07:06:39.944Z,-0.71
2023-03-12T07:09:43.107Z,-0.79
2023-03-12T07:12:46.450Z,-0.70
2023-03-12T07:15:49.820Z,-0.67
2023-03-12T07:18:53.090Z,-0.66
2023-03-12T07:21:56.699Z,-0.62
2023-03-12T07:24:59.359Z,-0.55
2023-03-12T07:28:02.540Z,-0.50
2023-03-12T07:31:05.873Z,-0.49
2023-03-12T07:34:09.126Z,-0.46
2023-03-12T07:37:12.342Z,-0.41
2023-03-12T07:40:15.884Z,-0.35
2023-03-12T07:43:21.659Z,-0.31
2023-03-12T07:46:24.571Z,-0.29
2023-03-12T07:49:27.669Z,-0.28
2023-03-12T07:52:32.282Z,-0.26
2023-03-12T07:55:38.941Z,-0.24
2023-03-12T07:58:42.400Z,-0.14
2023-03-12T08:01:46.418Z,-0.09
2023-03-12T08:04:50.085Z,-0.07
2023-03-12T08:07:53.985Z,-0.03
2023-03-12T08:10:57.270Z,0.01
2023-03-12T08:14:00.286Z,0.07
2023-03-12T08:17:03.407Z,0.13
2023-03-12T08:20:10.299Z,0.17
2023-03-12T08:23:13.080Z,0.20
2023-03-12T08:26:15.818Z,0.21
2023-03-12T08:29:18.533Z,0.21
2023-03-12T08:32:22.171Z,0.24
2023-03-12T08:35:29.554Z,0.31
2023-03-12T08:38:32.931Z,0.36
2023-03-12T08:41:35.761Z,0.39
2023-03-12T08:44:38.757Z,0.43
2023-03-12T08:47:43.610Z,0.44
2023-03-12T08:50:46.835Z,0.45
2023-03-12T08:53:49.906Z,0.37
2023-03-12T08:56:53.236Z,0.33
2023-03-12T08:59:56.052Z,0.32
2023-03-12T09:03:00.168Z,0.38
2023-03-12T09:06:13.185Z,0.45
2023-03-12T09:09:16.411Z,0.40
2023-03-12T09:12:19.544Z,0.45
2023-03-12T09:15:22.205Z,0.54
2023-03-12T09:18:24.900Z,0.56
2023-03-12T09:21:27.955Z,0.67
2023-03-12T09:24:30.721Z,0.79
2023-03-12T09:27:38.380Z,0.84
2023-03-12T09:30:42.297Z,0.90
2023-03-12T09:33:45.187Z,0.95
2023-03-12T09:36:48.340Z,1.03
2023-03-12T09:39:52.731Z,1.12
2023-03-12T09:43:03.455Z,1.20
2023-03-12T09:46:15.248Z,1.25
2023-03-12T09:49:48.166Z,1.30
2023-03-12T09:52:53.880Z,1.39
2023-03-12T09:55:59.583Z,1.46
2023-03-12T09:59:03.107Z,1.54
2023-03-12T10:02:37.456Z,1.59
2023-03-12T10:06:05.359Z,1.65
2023-03-12T10:09:35.349Z,1.77
2023-03-12T10:12:58.309Z,1.83
2023-03-12T10:16:38.358Z,1.89
2023-03-12T10:19:57.098Z,1.95
2023-03-12T10:23:07.671Z,2.00
2023-03-12T10:26:10.540Z,2.02
2023-03-12T10:29:17.489Z,2.06
2023-03-12T10:32:40.621Z,2.08
2023-03-12T10:35:43.897Z,2.13
2023-03-12T10:38:49.494Z,2.25
2023-03-12T10:41:53.276Z,2.33
2023-03-12T10:45:16.360Z,2.40
2023-03-12T10:48:26.206Z,2.50
2023-03-12T10:51:30.110Z,2.69
2023-03-12T10:54:38.712Z,2.76
2023-03-12T10:57:42.878Z,2.87
2023-03-12T11:00:57.088Z,2.91
2023-03-12T11:04:18.671Z,2.89
2023-03-12T11:07:29.177Z,2.98
2023-03-12T11:10:37.985Z,3.14
2023-03-12T11:13:42.023Z,3.28
2023-03-12T11:16:53.148Z,3.38
2023-03-12T11:19:57.379Z,3.52
2023-03-12T11:23:17.670Z,3.58
2023-03-12T11:26:22.665Z,3.56
2023-03-12T11:29:33.333Z,3.54
2023-03-12T11:32:45.574Z,3.54
2023-03-12T11:36:32.542Z,3.58
2023-03-12T11:40:00.221Z,3.60
2023-03-12T11:43:26.310Z,3.71
2023-03-12T11:46:42.788Z,3.75
2023-03-12T11:50:00.818Z,3.76
2023-03-12T11:53:23.357Z,3.69
2023-03-12T11:56:36.209Z,3.72
2023-03-12T12:00:09.233Z,3.68
2023-03-12T12:03:42.775Z,3.73
2023-03-12T12:06:52.737Z,3.71
2023-03-12T12:10:22.187Z,3.76
2023-03-12T12:13:30.789Z,3.87
2023-03-12T12:16:44.381Z,3.89
2023-03-12T12:19:56.228Z,3.95
2023-03-12T12:23:14.111Z,4.04
2023-03-12T12:26:33.021Z,4.05
2023-03-12T12:29:59.422Z,4.09
2023-03-12T12:33:22.756Z,4.00
2023-03-12T12:36:29.938Z,4.13
2023-03-12T12:39:35.550Z,4.26
2023-03-12T12:43:11.118Z,4.37
2023-03-12T12:46:18.786Z,4.45
2023-03-12T12:49:35.698Z,4.52
2023-03-12T12:52:39.090Z,4.60
2023-03-12T12:56:06.268Z,4.61
2023-03-12T12:59:31.805Z,4.52
2023-03-12T13:02:39.689Z,4.42
2023-03-12T13:05:55.692Z,4.38
2023-03-12T13:09:02.217Z,4.41
2023-03-12T13:12:13.041Z,4.45
2023-03-12T13:15:30.837Z,4.54
2023-03-12T13:18:33.640Z,4.55
2023-03-12T13:21:57.976Z,4.53
2023-03-12T13:25:25.274Z,4.58
2023-03-12T13:28:32.616Z,4.63
2023-03-12T13:31:37.799Z,4.63
2023-03-12T13:34:46.367Z,4.56
2023-03-12T13:37:52.102Z,4.51
2023-03-12T13:41:02.416Z,4.45
2023-03-12T13:44:23.462Z,4.54
2023-03-12T13:47:32.383Z,4.57
2023-03-12T13:50:42.943Z,4.60
2023-03-12T13:53:53.601Z,4.59
2023-03-12T13:57:05.801Z,4.64
2023-03-12T14:00:25.616Z,4.66
2023-03-12T14:03:40.260Z,4.60
2023-03-12T14:07:14.577Z,4.59
2023-03-12T14:10:37.069Z,4.64
2023-03-12T14:13:52.644Z,4.76
2023-03-12T14:17:01.908Z,4.85
2023-03-12T14:20:10.864Z,4.80
2023-03-12T14:23:17.027Z,4.77
2023-03-12T14:26:24.620Z,4.72
2023-03-12T14:29:45.056Z,4.73
2023-03-12T14:32:49.990Z,4.75
2023-03-12T14:36:07.847Z,4.72
2023-03-12T14:39:25.182Z,4.72
2023-03-12T14:42:30.543Z,4.64
2023-03-12T14:45:40.371Z,4.64
2023-03-12T14:48:43.671Z,4.62
2023-03-12T14:51:46.492Z,4.65
2023-03-12T14:55:02.307Z,4.60
2023-03-12T14:58:14.381Z,4.56
2023-03-12T15:01:23.469Z,4.64
2023-03-12T15:04:26.832Z,4.77
2023-03-12T15:07:34.139Z,4.86
2023-03-12T15:10:39.310Z,4.84
2023-03-12T15:13:42.301Z,4.78
2023-03-12T15:16:45.543Z,4.70
2023-03-12T15:19:50.352Z,4.66
2023-03-12T15:22:54.080Z,4.63
2023-03-12T15:26:27.381Z,4.60
2023-03-12T15:29:30.876Z,4.57
2023-03-12T15:32:33.830Z,4.57
2023-03-12T15:35:58.646Z,4.54
2023-03-12T15:39:26.321Z,4.52
2023-03-12T15:42:29.599Z,4.45
2023-03-12T15:45:37.974Z,4.40
2023-03-12T15:48:45.934Z,4.38
2023-03-12T15:52:18.032Z,4.36
2023-03-12T15:55:28.672Z,4.34
2023-03-12T15:58:41.571Z,4.35
2023-03-12T16:01:51.025Z,4.34
2023-03-12T16:04:54.475Z,4.35
2023-03-12T16:07:57.872Z,4.35
2023-03-12T16:11:00.674Z,4.33
2023-03-12T16:14:13.588Z,4.30
2023-03-12T16:17:23.673Z,4.26
2023-03-12T16:20:26.720Z,4.24
2023-03-12T16:23:29.408Z,4.25
2023-03-12T16:26:35.833Z,4.24
2023-03-12T16:29:39.980Z,4.20
2023-03-12T16:32:43.088Z,4.17
2023-03-12T16:35:46.278Z,4.17
2023-03-12T16:38:49.242Z,4.16
2023-03-12T16:41:51.933Z,4.13
2023-03-12T16:44:54.826Z,4.11
2023-03-12T16:48:04.239Z,4.11
2023-03-12T16:51:13.957Z,4.08
2023-03-12T16:54:16.690Z,4.08
2023-03-12T16:57:37.691Z,4.08
2023-03-12T17:00:40.601Z,4.08
2023-03-12T17:03:45.749Z,4.08
2023-03-12T17:06:48.484Z,4.05
2023-03-12T17:09:51.223Z,4.03
2023-03-12T17:12:55.702Z,4.02
2023-03-12T17:15:58.798Z,4.00
2023-03-12T17:19:01.722Z,4.01
2023-03-12T17:22:15.105Z,3.99
2023-03-12T17:25:30.197Z,3.98
2023-03-12T17:28:32.980Z,3.98
2023-03-12T17:31:37.729Z,3.99
2023-03-12T17:34:40.555Z,3.99
2023-03-12T17:37:44.089Z,3.99
2023-03-12T17:40:47.452Z,3.99
2023-03-12T17:43:50.550Z,4.01
2023-03-12T17:46:59.744Z,4.03
2023-03-12T17:50:04.212Z,4.02
2023-03-12T17:53:07.363Z,4.02
2023-03-12T17:56:12.738Z,4.02
2023-03-12T17:59:18.396Z,4.01
2023-03-12T18:02:21.500Z,4.00
2023-03-12T18:05:25.424Z,3.97
2023-03-12T18:08:28.982Z,3.93
2023-03-12T18:11:35.173Z,3.88
2023-03-12T18:14:38.727Z,3.79
2023-03-12T18:17:44.671Z,3.69
2023-03-12T18:20:48.502Z,3.69
2023-03-12T18:23:51.486Z,3.63
2023-03-12T18:26:54.302Z,3.55
2023-03-12T18:29:57.220Z,3.49
2023-03-12T18:33:00.180Z,3.46
2023-03-12T18:36:04.147Z,3.42
2023-03-12T18:39:07.258Z,3.39
2023-03-12T18:42:10.266Z,3.40
2023-03-12T18:45:13.511Z,3.41
2023-03-12T18:48:16.231Z,3.44
2023-03-12T18:51:19.646Z,3.51
2023-03-12T18:54:24.727Z,3.54
2023-03-12T18:57:27.776Z,3.55
2023-03-12T19:00:30.521Z,3.54
2023-03-12T19:03:36.469Z,3.52
2023-03-12T19:06:50.265Z,3.53
2023-03-12T19:09:54.151Z,3.48
2023-03-12T19:12:57.139Z,3.48
2023-03-12T19:16:02.096Z,3.45
2023-03-12T19:19:05.071Z,3.40
2023-03-12T19:22:08.020Z,3.37
2023-03-12T19:25:10.698Z,3.34
2023-03-12T19:28:13.495Z,3.34
2023-03-12T19:31:16.267Z,3.30
2023-03-12T19:34:20.115Z,3.25
2023-03-12T19:37:22.846Z,3.20
2023-03-12T19:40:25.765Z,3.18
2023-03-12T19:43:28.561Z,3.22
2023-03-12T19:46:31.470Z,3.24
2023-03-12T19:49:35.805Z,3.24
2023-03-12T19:52:38.900Z,3.23
2023-03-12T19:55:49.706Z,3.20
2023-03-12T19:58:52.471Z,3.14
2023-03-12T20:01:55.598Z,3.08
2023-03-12T20:04:58.344Z,3.07
2023-03-12T20:08:01.103Z,3.10
2023-03-12T20:11:06.884Z,3.09
2023-03-12T20:14:09.668Z,3.04
2023-03-12T20:17:13.378Z,3.01
2023-03-12T20:20:16.761Z,2.98
2023-03-12T20:23:19.616Z,2.98
2023-03-12T20:26:23.318Z,2.93
2023-03-12T20:29:26.256Z,2.91
2023-03-12T20:32:29.145Z,2.93
2023-03-12T20:35:32.604Z,2.91
2023-03-12T20:38:36.092Z,2.89
2023-03-12T20:41:38.981Z,2.90
2023-03-12T20:44:41.759Z,2.89
2023-03-12T20:47:44.813Z,2.88
2023-03-12T20:50:51.024Z,2.90
2023-03-12T20:53:53.749Z,2.93
2023-03-12T20:56:58.591Z,2.97
2023-03-12T21:00:01.412Z,2.95
2023-03-12T21:03:04.270Z,2.95
2023-03-12T21:06:07.117Z,2.96
2023-03-12T21:09:09.868Z,3.00
2023-03-12T21:12:13.127Z,3.04
2023-03-12T21:15:16.019Z,3.06
2023-03-12T21:18:19.011Z,3.03
2023-03-12T21:21:21.946Z,3.01
2023-03-12T21:24:24.719Z,3.03
2023-03-12T21:27:27.442Z,3.05
2023-03-12T21:30:30.342Z,3.11
2023-03-12T21:33:35.731Z,3.15
2023-03-12T21:36:38.494Z,3.18
2023-03-12T21:39:42.157Z,3.23
2023-03-12T21:42:44.894Z,3.28
2023-03-12T21:45:47.685Z,3.28
2023-03-12T21:48:50.552Z,3.31
2023-03-12T21:51:53.301Z,3.37
2023-03-12T21:54:56.203Z,3.42
2023-03-12T21:57:58.892Z,3.46
2023-03-12T22:01:10.915Z,3.51
2023-03-12T22:04:13.664Z,3.56
2023-03-12T22:07:16.745Z,3.61
2023-03-12T22:10:19.600Z,3.63
2023-03-12T22:13:22.651Z,3.65
2023-03-12T22:16:25.489Z,3.69
2023-03-12T22:19:28.442Z,3.75
2023-03-12T22:22:31.151Z,3.80
2023-03-12T22:25:34.740Z,3.83
2023-03-12T22:28:37.632Z,3.88
2023-03-12T22:31:40.579Z,3.89
2023-03-12T22:34:43.379Z,3.89
2023-03-12T22:37:46.038Z,3.92
2023-03-12T22:40:49.415Z,3.95
2023-03-12T22:43:54.686Z,3.98
2023-03-12T22:46:57.493Z,3.98
2023-03-12T22:50:00.233Z,4.00
2023-03-12T22:53:02.943Z,4.04
2023-03-12T22:56:08.390Z,4.08
2023-03-12T22:59:11.114Z,4.11
2023-03-12T23:02:13.906Z,4.13
2023-03-12T23:05:16.803Z,4.17
2023-03-12T23:08:19.644Z,4.19
2023-03-12T23:11:25.567Z,4.21
2023-03-12T23:14:28.518Z,4.21
2023-03-12T23:17:31.361Z,4.21
2023-03-12T23:20:34.077Z,4.21
2023-03-12T23:23:39.545Z,4.21
2023-03-12T23:26:43.843Z,4.23
2023-03-12T23:29:46.764Z,4.23
2023-03-12T23:32:49.547Z,4.29
2023-03-12T23:36:04.848Z,4.30
2023-03-12T23:39:15.872Z,4.31
2023-03-12T23:42:18.560Z,4.33
2023-03-12T23:45:21.333Z,4.32
2023-03-12T23:48:25.399Z,4.31
2023-03-12T23:51:31.334Z,4.31
2023-03-12T23:54:34.151Z,4.34
2023-03-12T23:57:36.836Z,4.36
